createdAt,value
2018-05-10T00:01:37.562Z,53.40
2018-05-10T00:04:05.015Z,53.40
2018-05-10T00:06:32.481Z,53.90
2018-05-10T00:09:00.702Z,54.00
2018-05-10T00:11:28.196Z,54.10
2018-05-10T00:13:55.677Z,53.90
2018-05-10T00:16:23.890Z,53.30
2018-05-10T00:18:51.345Z,53.20
2018-05-10T00:21:18.830Z,52.90
2018-05-10T00:23:46.306Z,52.40
2018-05-10T00:26:14.528Z,52.30
2018-05-10T00:28:42.001Z,52.30
2018-05-10T00:31:09.455Z,52.30
2018-05-10T00:33:36.921Z,52.20
2018-05-10T00:36:04.409Z,51.60
2018-05-10T00:38:32.635Z,50.80
2018-05-10T00:41:00.112Z,50.80
2018-05-10T00:43:27.573Z,51.40
2018-05-10T00:45:55.065Z,51.60
2018-05-10T00:48:22.503Z,51.60
2018-05-10T00:50:49.996Z,51.60
2018-05-10T00:53:18.222Z,50.90
2018-05-10T00:55:45.778Z,50.90
2018-05-10T00:58:13.253Z,50.70
2018-05-10T01:00:40.727Z,50.70
2018-05-10T01:03:10.939Z,51.10
2018-05-10T01:05:38.430Z,50.40
2018-05-10T01:08:05.902Z,51.00
2018-05-10T01:10:33.338Z,50.50
2018-05-10T01:13:00.834Z,50.70
2018-05-10T01:15:28.281Z,50.50
2018-05-10T01:17:55.762Z,50.40
2018-05-10T01:20:23.215Z,50.40
2018-05-10T01:22:50.700Z,50.30
2018-05-10T01:25:18.141Z,50.10
2018-05-10T01:27:45.609Z,50.50
2018-05-10T01:30:13.822Z,51.20
2018-05-10T01:32:41.304Z,50.50
2018-05-10T01:35:20.558Z,50.50
2018-05-10T01:37:48.059Z,50.50
2018-05-10T01:40:15.509Z,50.70
2018-05-10T01:42:42.983Z,51.10
2018-05-10T01:45:10.437Z,51.00
2018-05-10T01:47:37.901Z,51.10
2018-05-10T01:50:05.365Z,51.20
2018-05-10T01:52:32.813Z,51.30
2018-05-10T01:55:00.289Z,51.70
2018-05-10T01:57:27.748Z,52.30
2018-05-10T01:59:55.230Z,52.70
2018-05-10T02:02:22.676Z,52.40
2018-05-10T02:04:50.132Z,52.60
2018-05-10T02:07:17.571Z,52.40
2018-05-10T02:09:45.025Z,52.40
2018-05-10T02:12:12.487Z,52.60
2018-05-10T02:14:40.036Z,52.90
2018-05-10T02:17:07.397Z,52.80
2018-05-10T02:19:34.887Z,52.90
2018-05-10T02:22:03.114Z,53.10
2018-05-10T02:24:30.582Z,53.10
2018-05-10T02:26:58.027Z,53.30
2018-05-10T02:29:25.510Z,53.50
2018-05-10T02:31:52.967Z,52.70
2018-05-10T02:34:21.948Z,53.80
2018-05-10T02:36:49.481Z,53.80
2018-05-10T02:39:16.950Z,53.60
2018-05-10T02:41:44.417Z,53.00
2018-05-10T02:44:11.867Z,52.80
2018-05-10T02:46:39.332Z,52.70
2018-05-10T02:49:06.803Z,53.20
2018-05-10T02:51:35.055Z,53.80
2018-05-10T02:54:02.509Z,53.60
2018-05-10T02:56:29.997Z,53.90
2018-05-10T02:58:57.443Z,54.20
2018-05-10T03:01:24.914Z,54.70
2018-05-10T03:03:52.388Z,55.00
2018-05-10T03:06:20.614Z,54.50
2018-05-10T03:08:48.078Z,54.50
2018-05-10T03:11:15.526Z,54.30
2018-05-10T03:13:43.007Z,54.60
2018-05-10T03:16:10.462Z,54.30
2018-05-10T03:18:38.709Z,53.80
2018-05-10T03:21:06.178Z,53.80
2018-05-10T03:23:33.654Z,53.80
2018-05-10T03:26:01.113Z,54.50
2018-05-10T03:28:28.583Z,54.40
2018-05-10T03:30:56.807Z,54.40
2018-05-10T03:33:24.349Z,54.40
2018-05-10T03:35:51.803Z,54.90
2018-05-10T03:38:19.284Z,54.80
2018-05-10T03:40:46.749Z,54.70
2018-05-10T03:43:14.209Z,54.80
2018-05-10T03:45:42.453Z,55.50
2018-05-10T03:48:09.906Z,55.00
2018-05-10T03:50:37.396Z,54.70
2018-05-10T03:53:04.853Z,54.80
2018-05-10T03:55:32.353Z,55.10
2018-05-10T03:58:01.426Z,54.90
2018-05-10T04:00:28.911Z,54.90
2018-05-10T04:06:19.704Z,55.30
2018-05-10T04:09:00.007Z,55.70
2018-05-10T04:11:28.205Z,55.70
2018-05-10T04:13:55.676Z,55.70
2018-05-10T04:16:23.146Z,56.00
2018-05-10T04:18:51.410Z,56.90
2018-05-10T04:21:18.881Z,56.40
2018-05-10T04:23:47.107Z,55.90
2018-05-10T04:26:14.562Z,55.80
2018-05-10T04:28:42.065Z,56.30
2018-05-10T04:31:09.521Z,56.50
2018-05-10T04:33:37.750Z,56.00
2018-05-10T04:36:05.250Z,55.90
2018-05-10T04:38:32.717Z,56.30
2018-05-10T04:41:00.941Z,57.50
2018-05-10T04:43:28.423Z,57.40
2018-05-10T04:45:55.870Z,57.10
2018-05-10T04:48:23.384Z,55.90
2018-05-10T04:50:50.846Z,55.40
2018-05-10T04:53:18.331Z,55.20
2018-05-10T04:55:45.783Z,55.10
2018-05-10T04:58:13.235Z,55.40
2018-05-10T05:00:40.719Z,55.50
2018-05-10T05:03:08.213Z,55.00
2018-05-10T05:05:36.568Z,55.10
2018-05-10T05:08:04.032Z,55.00
2018-05-10T05:10:32.265Z,54.70
2018-05-10T05:12:59.735Z,54.60
2018-05-10T05:15:27.286Z,54.90
2018-05-10T05:17:54.743Z,55.10
2018-05-10T05:20:22.222Z,54.70
2018-05-10T05:22:49.673Z,55.20
2018-05-10T05:25:17.109Z,54.60
2018-05-10T05:27:44.574Z,54.90
2018-05-10T05:30:12.057Z,54.90
2018-05-10T05:32:40.334Z,55.00
2018-05-10T05:35:07.801Z,55.00
2018-05-10T05:37:36.046Z,54.90
2018-05-10T05:40:03.491Z,54.90
2018-05-10T05:42:30.982Z,54.60
2018-05-10T05:44:59.202Z,53.90
2018-05-10T05:47:26.697Z,53.90
2018-05-10T05:49:54.125Z,53.90
2018-05-10T05:52:21.583Z,54.20
2018-05-10T05:54:49.058Z,54.30
2018-05-10T05:57:16.552Z,54.40
2018-05-10T05:59:44.785Z,54.50
2018-05-10T06:02:12.258Z,54.50
2018-05-10T06:04:40.488Z,54.70
2018-05-10T06:07:07.944Z,54.10
2018-05-10T06:09:35.410Z,54.10
2018-05-10T06:12:02.862Z,54.20
2018-05-10T06:14:30.330Z,54.20
2018-05-10T06:16:57.778Z,54.10
2018-05-10T06:19:25.242Z,54.40
2018-05-10T06:21:52.695Z,54.70
2018-05-10T06:24:20.152Z,54.40
2018-05-10T06:26:47.624Z,54.90
2018-05-10T06:29:15.100Z,54.70
2018-05-10T06:31:43.306Z,55.00
2018-05-10T06:34:11.225Z,54.90
2018-05-10T06:36:38.693Z,55.00
2018-05-10T06:39:06.166Z,54.80
2018-05-10T06:41:34.402Z,55.10
2018-05-10T06:44:01.853Z,55.00
2018-05-10T06:46:29.314Z,55.00
2018-05-10T06:48:56.808Z,55.10
2018-05-10T06:51:25.021Z,55.40
2018-05-10T06:53:52.463Z,55.40
2018-05-10T06:56:19.933Z,55.20
2018-05-10T06:58:47.409Z,55.20
2018-05-10T07:01:14.882Z,55.20
2018-05-10T07:03:42.326Z,55.10
2018-05-10T07:06:10.565Z,55.10
2018-05-10T07:08:38.019Z,55.20
2018-05-10T07:11:05.493Z,55.30
2018-05-10T07:13:32.946Z,55.40
2018-05-10T07:16:00.430Z,55.40
2018-05-10T07:18:27.891Z,55.90
2018-05-10T07:20:55.380Z,55.00
2018-05-10T07:23:23.606Z,54.20
2018-05-10T07:25:51.068Z,54.20
2018-05-10T07:28:18.550Z,52.70
2018-05-10T07:30:47.223Z,52.60
2018-05-10T07:33:14.680Z,52.50
2018-05-10T07:35:42.931Z,51.60
2018-05-10T07:38:10.388Z,51.60
2018-05-10T07:40:37.844Z,51.90
2018-05-10T07:43:05.321Z,51.70
2018-05-10T07:45:32.779Z,52.00
2018-05-10T07:48:00.245Z,51.60
2018-05-10T07:50:28.476Z,51.70
2018-05-10T07:52:55.946Z,51.60
2018-05-10T07:55:23.395Z,51.50
2018-05-10T07:57:50.869Z,51.70
2018-05-10T08:00:18.349Z,52.00
2018-05-10T08:02:45.841Z,51.80
2018-05-10T08:05:13.307Z,51.80
2018-05-10T08:07:40.776Z,51.90
2018-05-10T08:10:08.337Z,51.60
2018-05-10T08:12:35.737Z,51.80
2018-05-10T08:15:03.997Z,51.60
2018-05-10T08:17:31.510Z,51.50
2018-05-10T08:19:59.059Z,51.20
2018-05-10T08:22:26.524Z,51.20
2018-05-10T08:24:54.011Z,50.80
2018-05-10T08:27:21.538Z,51.50
2018-05-10T08:29:49.270Z,51.40
2018-05-10T08:32:17.636Z,52.30
2018-05-10T08:34:45.693Z,52.20
2018-05-10T08:37:13.222Z,52.30
2018-05-10T08:39:40.774Z,52.60
2018-05-10T08:42:08.621Z,52.90
2018-05-10T08:44:36.087Z,53.10
2018-05-10T08:47:03.771Z,52.70
2018-05-10T08:49:31.521Z,52.60
2018-05-10T08:51:59.216Z,52.00
2018-05-10T08:54:27.518Z,52.30
2018-05-10T08:56:55.059Z,52.30
2018-05-10T08:59:23.632Z,51.40
2018-05-10T09:01:51.201Z,51.40
2018-05-10T09:04:18.698Z,51.50
2018-05-10T09:06:46.198Z,53.00
2018-05-10T09:09:13.769Z,52.80
2018-05-10T09:11:41.238Z,53.10
2018-05-10T09:14:09.476Z,54.30
2018-05-10T09:16:37.795Z,54.30
2018-05-10T09:19:05.286Z,54.80
2018-05-10T09:21:32.746Z,55.20
2018-05-10T09:24:00.226Z,55.50
2018-05-10T09:26:27.706Z,55.90
2018-05-10T09:28:55.228Z,56.00
2018-05-10T09:31:22.689Z,56.40
2018-05-10T09:33:50.227Z,56.40
2018-05-10T09:36:17.684Z,56.20
2018-05-10T09:38:45.163Z,56.30
2018-05-10T09:41:12.651Z,56.40
2018-05-10T09:43:40.899Z,56.70
2018-05-10T09:46:08.484Z,56.60
2018-05-10T09:48:36.608Z,55.80
2018-05-10T09:51:04.102Z,55.80
2018-05-10T09:53:31.636Z,55.60
2018-05-10T09:55:59.112Z,55.40
2018-05-10T09:58:26.619Z,56.00
2018-05-10T10:00:54.078Z,56.10
2018-05-10T10:03:21.532Z,56.30
2018-05-10T10:05:49.063Z,56.60
2018-05-10T10:08:17.287Z,57.30
2018-05-10T10:10:45.535Z,57.30
2018-05-10T10:13:13.003Z,57.40
2018-05-10T10:15:40.485Z,57.40
2018-05-10T10:18:07.989Z,57.50
2018-05-10T10:20:36.263Z,58.00
2018-05-10T10:23:04.516Z,58.20
2018-05-10T10:25:32.793Z,58.30
2018-05-10T10:28:01.792Z,58.40
2018-05-10T10:30:29.257Z,58.30
2018-05-10T10:32:57.495Z,58.20
2018-05-10T10:35:24.944Z,58.20
2018-05-10T10:37:52.404Z,58.00
2018-05-10T10:40:19.855Z,57.80
2018-05-10T10:42:47.344Z,56.30
2018-05-10T10:45:14.818Z,54.20
2018-05-10T10:47:42.286Z,53.20
2018-05-10T10:50:09.776Z,53.20
2018-05-10T10:52:37.322Z,53.70
2018-05-10T10:55:04.806Z,53.60
2018-05-10T10:57:32.268Z,53.40
2018-05-10T10:59:59.824Z,52.40
2018-05-10T11:02:27.974Z,52.60
2018-05-10T11:04:55.468Z,52.50
2018-05-10T11:07:22.942Z,52.10
2018-05-10T11:09:51.167Z,51.30
2018-05-10T11:12:18.630Z,51.30
2018-05-10T11:14:46.079Z,51.30
2018-05-10T11:17:13.582Z,51.00
2018-05-10T11:19:41.822Z,50.90
2018-05-10T11:22:09.372Z,50.70
2018-05-10T11:24:36.898Z,50.60
2018-05-10T11:27:04.362Z,49.90
2018-05-10T11:29:31.893Z,49.90
2018-05-10T11:32:00.134Z,50.60
2018-05-10T11:34:27.591Z,50.40
2018-05-10T11:36:55.375Z,50.70
2018-05-10T11:39:22.822Z,50.90
2018-05-10T11:41:50.310Z,51.20
2018-05-10T11:44:17.767Z,52.10
2018-05-10T11:46:45.309Z,51.70
2018-05-10T11:49:12.735Z,52.00
2018-05-10T11:51:40.257Z,52.10
2018-05-10T11:54:07.730Z,52.10
2018-05-10T11:56:35.200Z,52.10
2018-05-10T11:59:02.725Z,52.30
2018-05-10T12:01:30.168Z,52.30
2018-05-10T12:03:57.679Z,52.20
2018-05-10T12:06:25.130Z,52.20
2018-05-10T12:08:52.587Z,52.10
2018-05-10T12:11:20.038Z,52.10
2018-05-10T12:13:47.494Z,52.40
2018-05-10T12:16:14.946Z,52.70
2018-05-10T12:18:42.513Z,53.00
2018-05-10T12:21:10.001Z,53.00
2018-05-10T12:23:38.248Z,53.20
2018-05-10T12:26:05.714Z,53.20
2018-05-10T12:28:33.237Z,53.80
2018-05-10T12:31:00.924Z,52.90
2018-05-10T12:33:28.481Z,52.60
2018-05-10T12:35:56.723Z,52.40
2018-05-10T12:38:24.202Z,52.40
2018-05-10T12:40:51.694Z,52.10
2018-05-10T12:43:19.935Z,52.00
2018-05-10T12:45:47.475Z,51.90
2018-05-10T12:48:15.132Z,52.10
2018-05-10T12:50:42.819Z,52.10
2018-05-10T12:53:11.074Z,53.00
2018-05-10T12:55:38.817Z,53.00
2018-05-10T12:58:07.137Z,53.00
2018-05-10T13:00:34.996Z,53.50
2018-05-10T13:03:03.599Z,54.70
2018-05-10T13:05:31.304Z,54.70
2018-05-10T13:08:00.718Z,55.10
2018-05-10T13:10:28.590Z,55.50
2018-05-10T13:12:56.194Z,55.80
2018-05-10T13:15:24.582Z,55.90
2018-05-10T13:17:54.076Z,55.80
2018-05-10T13:20:21.606Z,56.10
2018-05-10T13:22:50.087Z,56.10
2018-05-10T13:25:17.986Z,56.00
2018-05-10T13:27:45.490Z,55.90
2018-05-10T13:30:12.953Z,56.30
2018-05-10T13:32:40.444Z,56.40
2018-05-10T13:35:07.919Z,56.60
2018-05-10T13:37:36.134Z,56.90
2018-05-10T13:40:03.631Z,57.20
2018-05-10T13:42:31.090Z,57.30
2018-05-10T13:44:58.558Z,57.20
2018-05-10T13:47:26.886Z,57.90
2018-05-10T13:49:54.335Z,57.80
2018-05-10T13:52:21.779Z,57.90
2018-05-10T13:54:50.247Z,57.60
2018-05-10T13:57:18.485Z,57.10
2018-05-10T13:59:45.966Z,57.00
2018-05-10T14:02:14.216Z,57.20
2018-05-10T14:04:41.695Z,57.20
2018-05-10T14:07:09.916Z,57.70
2018-05-10T14:09:37.435Z,57.60
2018-05-10T14:12:05.667Z,57.90
2018-05-10T14:14:33.343Z,57.90
2018-05-10T14:17:00.853Z,58.10
2018-05-10T14:19:28.329Z,57.60
2018-05-10T14:21:55.827Z,57.70
2018-05-10T14:24:23.273Z,57.90
2018-05-10T14:26:50.766Z,58.00
2018-05-10T14:29:18.283Z,58.20
2018-05-10T14:31:45.741Z,58.00
2018-05-10T14:34:13.208Z,57.70
2018-05-10T14:36:40.673Z,57.60
2018-05-10T14:39:08.922Z,57.10
2018-05-10T14:41:36.414Z,57.60
2018-05-10T14:44:04.662Z,57.60
2018-05-10T14:46:32.188Z,57.50
2018-05-10T14:48:59.695Z,57.50
2018-05-10T14:51:27.914Z,57.50
2018-05-10T14:53:55.502Z,57.50
2018-05-10T14:56:22.952Z,57.70
2018-05-10T14:58:50.421Z,58.20
2018-05-10T15:01:17.890Z,58.70
2018-05-10T15:03:46.151Z,62.20
2018-05-10T15:06:13.606Z,62.10
2018-05-10T15:08:41.120Z,63.60
2018-05-10T15:11:08.571Z,64.70
2018-05-10T15:13:36.027Z,65.50
2018-05-10T15:16:03.514Z,66.20
2018-05-10T15:18:31.024Z,66.50
2018-05-10T15:20:59.258Z,67.00
2018-05-10T15:23:26.767Z,66.90
2018-05-10T15:25:54.275Z,67.20
2018-05-10T15:28:23.500Z,67.00
2018-05-10T15:30:51.746Z,67.10
2018-05-10T15:33:19.200Z,67.10
2018-05-10T15:35:46.685Z,66.90
2018-05-10T15:38:14.939Z,67.90
2018-05-10T15:40:43.281Z,67.90
2018-05-10T15:43:10.739Z,68.50
2018-05-10T15:45:39.146Z,67.60
2018-05-10T15:48:06.595Z,67.50
2018-05-10T15:50:34.834Z,67.50
2018-05-10T15:53:02.310Z,67.50
2018-05-10T15:55:29.778Z,67.80
2018-05-10T15:57:57.420Z,68.00
2018-05-10T16:00:24.905Z,67.50
2018-05-10T16:02:52.362Z,67.90
2018-05-10T16:05:19.830Z,68.10
2018-05-10T16:07:47.347Z,67.00
2018-05-10T16:10:14.841Z,66.70
2018-05-10T16:12:42.295Z,67.30
2018-05-10T16:15:09.765Z,66.50
2018-05-10T16:17:37.285Z,66.50
2018-05-10T16:20:04.754Z,67.70
2018-05-10T16:22:32.234Z,68.30
2018-05-10T16:24:59.738Z,67.10
2018-05-10T16:27:27.984Z,66.20
2018-05-10T16:29:56.261Z,67.20
2018-05-10T16:32:24.487Z,68.10
2018-05-10T16:34:51.982Z,67.30
2018-05-10T16:37:20.214Z,66.90
2018-05-10T16:39:47.682Z,66.00
2018-05-10T16:42:15.138Z,66.80
2018-05-10T16:44:42.625Z,67.50
2018-05-10T16:47:10.104Z,67.40
2018-05-10T16:49:38.370Z,64.40
2018-05-10T16:52:05.840Z,64.30
2018-05-10T16:54:33.328Z,64.80
2018-05-10T16:57:00.806Z,65.90
2018-05-10T16:59:28.273Z,65.90
2018-05-10T17:01:56.739Z,64.90
2018-05-10T17:04:24.237Z,64.00
2018-05-10T17:06:51.779Z,64.60
2018-05-10T17:09:20.051Z,65.10
2018-05-10T17:11:47.517Z,65.10
2018-05-10T17:14:15.783Z,68.80
2018-05-10T17:16:43.283Z,68.80
2018-05-10T17:19:10.779Z,69.00
2018-05-10T17:21:38.261Z,66.40
2018-05-10T17:24:06.537Z,66.30
2018-05-10T17:26:34.780Z,66.00
2018-05-10T17:29:02.281Z,66.00
2018-05-10T17:31:29.775Z,66.80
2018-05-10T17:33:57.236Z,69.00
2018-05-10T17:36:24.727Z,68.20
2018-05-10T17:38:52.949Z,66.80
2018-05-10T17:41:20.446Z,66.70
2018-05-10T17:43:47.902Z,67.50
2018-05-10T17:46:15.391Z,67.10
2018-05-10T17:48:42.850Z,68.00
2018-05-10T17:51:10.337Z,67.20
2018-05-10T17:53:37.835Z,67.50
2018-05-10T17:56:06.090Z,68.20
2018-05-10T17:58:33.589Z,67.90
2018-05-10T18:01:01.072Z,67.20
2018-05-10T18:03:28.556Z,67.50
2018-05-10T18:05:56.054Z,66.80
2018-05-10T18:08:24.286Z,67.40
2018-05-10T18:10:51.838Z,67.30
2018-05-10T18:13:19.335Z,67.50
2018-05-10T18:15:46.804Z,67.50
2018-05-10T18:18:14.303Z,67.50
2018-05-10T18:20:41.765Z,68.00
2018-05-10T18:23:09.270Z,67.60
2018-05-10T18:25:37.499Z,69.80
2018-05-10T18:28:05.001Z,69.60
2018-05-10T18:30:33.235Z,70.40
2018-05-10T18:33:00.686Z,70.40
2018-05-10T18:35:28.181Z,69.80
2018-05-10T18:37:55.642Z,71.10
2018-05-10T18:40:23.904Z,69.40
2018-05-10T18:42:51.391Z,69.30
2018-05-10T18:45:18.850Z,70.80
2018-05-10T18:47:46.346Z,69.60
2018-05-10T18:50:13.811Z,70.70
2018-05-10T18:52:41.324Z,71.50
2018-05-10T18:55:08.807Z,71.10
2018-05-10T18:57:36.273Z,70.30
2018-05-10T19:00:03.799Z,69.70
2018-05-10T19:02:31.261Z,69.10
2018-05-10T19:04:58.751Z,69.40
2018-05-10T19:07:26.292Z,68.90
2018-05-10T19:09:53.719Z,68.50
2018-05-10T19:12:21.971Z,68.40
2018-05-10T19:14:50.274Z,68.00
2018-05-10T19:17:17.786Z,68.00
2018-05-10T19:19:45.298Z,68.00
2018-05-10T19:22:13.630Z,68.80
2018-05-10T19:24:41.862Z,70.40
2018-05-10T19:27:09.764Z,70.40
2018-05-10T19:29:38.765Z,68.80
2018-05-10T19:32:06.250Z,68.70
2018-05-10T19:34:33.700Z,69.60
2018-05-10T19:37:01.182Z,68.90
2018-05-10T19:39:28.662Z,70.40
2018-05-10T19:41:56.170Z,69.50
2018-05-10T19:44:23.658Z,71.00
2018-05-10T19:46:51.987Z,71.30
2018-05-10T19:49:20.263Z,70.80
2018-05-10T19:51:48.519Z,70.50
2018-05-10T19:54:16.005Z,70.50
2018-05-10T19:56:44.347Z,67.80
2018-05-10T19:59:12.490Z,68.30
2018-05-10T20:01:39.955Z,68.30
2018-05-10T20:04:07.446Z,68.30
2018-05-10T20:06:34.919Z,68.00
2018-05-10T20:09:03.191Z,69.20
2018-05-10T20:11:31.435Z,69.00
2018-05-10T20:13:58.934Z,68.90
2018-05-10T20:16:26.398Z,69.70
2018-05-10T20:18:53.889Z,70.30
2018-05-10T20:21:21.367Z,69.10
2018-05-10T20:23:48.832Z,68.10
2018-05-10T20:26:16.375Z,67.20
2018-05-10T20:28:43.846Z,66.70
2018-05-10T20:31:11.313Z,66.30
2018-05-10T20:33:38.828Z,66.70
2018-05-10T20:36:06.280Z,66.60
2018-05-10T20:38:33.802Z,66.70
2018-05-10T20:41:02.045Z,66.50
2018-05-10T20:43:29.540Z,66.50
2018-05-10T20:45:57.799Z,66.50
2018-05-10T20:48:26.049Z,65.40
2018-05-10T20:50:55.067Z,65.00
2018-05-10T20:53:23.313Z,65.00
2018-05-10T20:55:50.882Z,64.90
2018-05-10T20:58:18.302Z,64.70
2018-05-10T21:00:45.809Z,65.70
2018-05-10T21:03:14.035Z,64.40
2018-05-10T21:05:41.517Z,64.40
2018-05-10T21:08:08.979Z,64.80
2018-05-10T21:10:36.468Z,64.20
2018-05-10T21:13:03.924Z,64.60
2018-05-10T21:15:31.422Z,65.00
2018-05-10T21:17:58.898Z,65.90
2018-05-10T21:20:26.374Z,66.80
2018-05-10T21:22:54.623Z,68.70
2018-05-10T21:25:22.130Z,68.60
2018-05-10T21:27:49.642Z,69.00
2018-05-10T21:30:17.156Z,70.50
2018-05-10T21:32:44.646Z,71.20
2018-05-10T21:35:12.114Z,71.00
2018-05-10T21:37:39.585Z,70.50
2018-05-10T21:40:07.040Z,70.90
2018-05-10T21:42:34.580Z,71.10
2018-05-10T21:45:02.045Z,70.50
2018-05-10T21:47:29.543Z,70.30
2018-05-10T21:50:04.543Z,72.00
2018-05-10T21:52:32.007Z,71.70
2018-05-10T21:55:00.312Z,71.70
2018-05-10T21:57:27.734Z,71.50
2018-05-10T21:59:55.202Z,71.50
2018-05-10T22:02:23.433Z,69.70
2018-05-10T22:04:50.919Z,69.70
2018-05-10T22:07:18.397Z,69.20
2018-05-10T22:09:46.675Z,68.20
2018-05-10T22:12:14.924Z,68.30
2018-05-10T22:14:42.386Z,68.30
2018-05-10T22:17:09.857Z,68.20
2018-05-10T22:19:38.798Z,68.70
2018-05-10T22:22:06.246Z,68.70
2018-05-10T22:24:33.804Z,68.40
2018-05-10T22:27:01.182Z,68.50
2018-05-10T22:29:28.672Z,68.40
2018-05-10T22:31:56.889Z,68.40
2018-05-10T22:34:24.352Z,68.30
2018-05-10T22:36:51.810Z,68.40
2018-05-10T22:39:19.298Z,68.90
2018-05-10T22:41:46.761Z,68.20
2018-05-10T22:44:14.976Z,68.70
2018-05-10T22:46:42.465Z,68.50
2018-05-10T22:49:09.908Z,68.60
2018-05-10T22:51:37.374Z,68.60
2018-05-10T22:54:04.835Z,68.40
2018-05-10T22:56:32.333Z,68.50
2018-05-10T22:59:00.542Z,68.80
2018-05-10T23:01:28.010Z,68.70
2018-05-10T23:03:55.492Z,69.10
2018-05-10T23:06:22.972Z,69.10
2018-05-10T23:08:51.177Z,69.10
2018-05-10T23:11:18.678Z,69.10
2018-05-10T23:13:46.114Z,69.40
2018-05-10T23:16:13.568Z,68.80
2018-05-10T23:18:41.037Z,69.30
2018-05-10T23:21:08.480Z,68.80
2018-05-10T23:23:35.954Z,69.00
2018-05-10T23:26:04.912Z,68.90
2018-05-10T23:28:32.387Z,68.80
2018-05-10T23:30:59.849Z,69.60
2018-05-10T23:33:27.319Z,68.50
2018-05-10T23:35:56.283Z,67.30
2018-05-10T23:38:23.764Z,67.30
2018-05-10T23:40:51.217Z,67.70
2018-05-10T23:43:18.704Z,67.30
2018-05-10T23:45:46.930Z,68.30
2018-05-10T23:48:14.417Z,68.30
2018-05-10T23:50:43.381Z,67.80
2018-05-10T23:53:10.838Z,67.70
2018-05-10T23:55:38.296Z,68.10
2018-05-10T23:58:05.769Z,68.10
